Nearby METAR Reports

 

KORH - Worcester, Massachusetts, USA
Distance from station: NW 4mi, 7km
Updated: Mon, 26-Jun-2017 12:54am EDT
Clear
Clear
 Wind from W
Wind: W 12 mph , 19 km/h
Temperature: 59°F , 15°C
Dew Point: 55°F , 13°C
Humidity: 88%
Barometer: 29.97 inHg , 1014.9 hPa
Clouds: Clear
Visibility: 10 miles , 16 km
2017/06/26 04:54 KORH 260454Z AUTO 27010KT 10SM CLR 15/13 A2997 RMK AO2 RAB11E23 SLP145 P0000 T01500128 402560150 $
KBOS - Boston, Massachusetts, USA
Distance from station: ENE 42mi, 68km
Updated: Mon, 26-Jun-2017 12:54am EDT
Partly cloudy
Partly cloudy
 Wind from W
Wind: W 8 mph , 13 km/h
Temperature: 66°F , 19°C
Dew Point: 57°F , 14°C
Humidity: 73%
Barometer: 29.93 inHg , 1013.5 hPa
Clouds: Partly cloudy
Visibility: 10 miles , 16 km
Cloud details: Partly cloudy 2000 ft
Partly cloudy 9000 ft
2017/06/26 04:54 KBOS 260454Z 27007KT 10SM SCT020 SCT090 19/14 A2993 RMK AO2 RAB11E49 SLP134 P0000 T01890139 402940183 $
 
KCQX - Chatham, Massachusetts, USA
Distance from station: SE 102mi, 164km
Updated: Mon, 26-Jun-2017 12:52am EDT
Mostly cloudy
Mostly cloudy
 Wind from W
Wind: W 3 mph , 6 km/h
Temperature: 68°F , 20°C
Dew Point: 61°F , 16°C
Humidity: 78%
Barometer: 29.94 inHg , 1013.9 hPa
Clouds: Mostly cloudy
Visibility: 10 miles , 16 km
Cloud details: Mostly cloudy 11000 ft
2017/06/26 04:52 KCQX 260452Z AUTO 28003KT 10SM BKN110 20/16 A2994 RMK AO2 SLP139 T02000156 402720161
KMVY - Marthas Vineyard, Massachusetts, USA
Distance from station: SE 84mi, 135km
Updated: Mon, 26-Jun-2017 12:53am EDT
Mostly cloudy
Mostly cloudy
 Wind from WNW
Wind: WNW 8 mph , 13 km/h, Gust: 16 mph , 26 km/h
Temperature: 66°F , 19°C
Dew Point: 61°F , 16°C
Humidity: 83%
Barometer: 29.95 inHg , 1014.2 hPa
Clouds: Mostly cloudy
Visibility: 10 miles , 16 km
Cloud details: Mostly cloudy 11000 ft
2017/06/26 04:53 KMVY 260453Z AUTO 30007G14KT 10SM BKN110 19/16 A2995 RMK AO2 SLP139 T01890156 402780144
 
KPVC - Provincetown, Massachusetts, USA
Distance from station: NNW 85mi, 136km
Updated: Mon, 26-Jun-2017 12:56am EDT
Clear
Clear
 Wind from WNW
Wind: WNW 8 mph , 13 km/h
Temperature: 63°F , 17°C
Dew Point: 55°F , 13°C
Humidity: 77%
Barometer: 29.93 inHg , 1013.5 hPa
Clouds: Clear
Visibility: 10 miles , 16 km
2017/06/26 04:56 KPVC 260456Z AUTO 29007KT 10SM CLR 17/13 A2993 RMK AO2 SLP136 T01670133 402720161
KAQW - Savoy, Massachusetts, USA
Distance from station: NNW 66mi, 106km
Updated: Mon, 26-Jun-2017 12:52am EDT
Overcast
Overcast
 Wind from calm
Wind: Calm
Temperature: 57°F , 14°C
Dew Point: 55°F , 13°C
Humidity: 94%
Barometer: 29.99 inHg , 1015.6 hPa
Clouds: Overcast
Visibility: 10 miles , 16 km
Cloud details: Overcast 9500 ft
2017/06/26 04:52 KAQW 260452Z AUTO 00000KT 10SM OVC095 14/13 A2999 RMK AO2 RAE0358 SLP156 P0000 T01390128 402560122
 
KIZG - Fryeburg, Maine, USA
Distance from station: NNE 133mi, 214km
Updated: Mon, 26-Jun-2017 12:54am EDT
Clear
Clear
 Wind from calm
Wind: Calm
Temperature: 52°F , 11°C
Dew Point: 52°F , 11°C
Humidity: 100%
Barometer: 29.91 inHg , 1012.9 hPa
Clouds: Clear
Visibility: 9 miles , 14 km
2017/06/26 04:54 KIZG 260454Z AUTO 00000KT 9SM CLR 11/11 A2991 RMK AO2 SLP126 T01110111 402720106
KMWN - Mt Washington, New Hampshire, USA
Distance from station: NNE 146mi, 234km
Updated: Mon, 26-Jun-2017 12:55am EDT
Mostly cloudy
Mostly cloudy
 Wind from W
Wind: W 40 mph , 65 km/h, Gust: 44 mph , 70 km/h
Temperature: 39°F , 4°C
Wind Chill: 26°F , -3°C
Dew Point: 37°F , 3°C
Humidity: 93%
Clouds: Mostly cloudy
Visibility: 100 miles , 160 km
Cloud details: Few Clouds 2000 ft
Partly cloudy 4000 ft
Partly cloudy 7000 ft
Mostly cloudy 10000 ft
2017/06/26 04:55 KMWN 260455Z COR 26035G38KT 100SM FEW020 SCT040 SCT070 BKN100 04/03 RMK PTCHY VLY FG ALQDS
 
KBML - Berlin, New Hampshire, USA
Distance from station: NNE 160mi, 257km
Updated: Mon, 26-Jun-2017 1:05am EDT
Mostly cloudy
Mostly cloudy
 Wind from calm
Wind: Calm
Temperature: 48°F , 9°C
Dew Point: 45°F , 7°C
Humidity: 87%
Barometer: 29.90 inHg , 1012.5 hPa
Clouds: Mostly cloudy
Visibility: 10 miles , 16 km
Cloud details: Mostly cloudy 200 ft
2017/06/26 05:05 KBML 260505Z AUTO 00000KT 10SM BKN002 09/07 A2990 RMK AO2 T00890067